sensor_id;sensor_type;location;lat;lon;timestamp;P1;durP1;ratioP1;P2;durP2;ratioP2
56670;SDS011;42545;50.054;8.306;2022-09-21T00:00:21;1.20;;;1.10;;
56670;SDS011;42545;50.054;8.306;2022-09-21T00:02:49;1.48;;;0.93;;
56670;SDS011;42545;50.054;8.306;2022-09-21T00:05:16;1.05;;;1.00;;
56670;SDS011;42545;50.054;8.306;2022-09-21T00:07:43;1.73;;;1.15;;
56670;SDS011;42545;50.054;8.306;2022-09-21T00:10:10;1.38;;;1.10;;
56670;SDS011;42545;50.054;8.306;2022-09-21T00:12:36;1.00;;;0.82;;
56670;SDS011;42545;50.054;8.306;2022-09-21T00:15:04;1.10;;;0.90;;
56670;SDS011;42545;50.054;8.306;2022-09-21T00:17:33;1.77;;;1.10;;
56670;SDS011;42545;50.054;8.306;2022-09-21T00:20:02;1.30;;;1.20;;
56670;SDS011;42545;50.054;8.306;2022-09-21T00:22:30;1.20;;;0.90;;
56670;SDS011;42545;50.054;8.306;2022-09-21T00:24:57;2.05;;;1.10;;
56670;SDS011;42545;50.054;8.306;2022-09-21T00:27:25;0.95;;;0.90;;
56670;SDS011;42545;50.054;8.306;2022-09-21T00:29:54;1.83;;;1.00;;
56670;SDS011;42545;50.054;8.306;2022-09-21T00:32:21;1.20;;;1.10;;
56670;SDS011;42545;50.054;8.306;2022-09-21T00:34:49;1.20;;;1.02;;
56670;SDS011;42545;50.054;8.306;2022-09-21T00:37:17;0.82;;;0.82;;
56670;SDS011;42545;50.054;8.306;2022-09-21T00:39:45;0.82;;;0.82;;
56670;SDS011;42545;50.054;8.306;2022-09-21T00:42:13;1.17;;;0.90;;
56670;SDS011;42545;50.054;8.306;2022-09-21T00:44:42;1.42;;;0.90;;
56670;SDS011;42545;50.054;8.306;2022-09-21T00:47:10;1.00;;;0.90;;
56670;SDS011;42545;50.054;8.306;2022-09-21T00:49:39;1.10;;;0.90;;
56670;SDS011;42545;50.054;8.306;2022-09-21T00:52:08;1.08;;;0.95;;
56670;SDS011;42545;50.054;8.306;2022-09-21T00:54:41;1.13;;;0.80;;
56670;SDS011;42545;50.054;8.306;2022-09-21T00:57:12;0.80;;;0.70;;
56670;SDS011;42545;50.054;8.306;2022-09-21T00:59:40;1.20;;;1.08;;
56670;SDS011;42545;50.054;8.306;2022-09-21T01:02:10;1.50;;;1.40;;
56670;SDS011;42545;50.054;8.306;2022-09-21T01:04:39;2.90;;;1.47;;
56670;SDS011;42545;50.054;8.306;2022-09-21T01:07:08;1.45;;;1.20;;
56670;SDS011;42545;50.054;8.306;2022-09-21T01:09:38;3.70;;;2.03;;
56670;SDS011;42545;50.054;8.306;2022-09-21T01:12:12;2.40;;;1.70;;
56670;SDS011;42545;50.054;8.306;2022-09-21T01:14:53;3.17;;;2.00;;
56670;SDS011;42545;50.054;8.306;2022-09-21T01:17:32;1.40;;;1.30;;
56670;SDS011;42545;50.054;8.306;2022-09-21T01:20:13;1.40;;;1.25;;
56670;SDS011;42545;50.054;8.306;2022-09-21T01:22:56;1.67;;;1.40;;
56670;SDS011;42545;50.054;8.306;2022-09-21T01:25:40;1.83;;;1.40;;
56670;SDS011;42545;50.054;8.306;2022-09-21T01:28:23;1.42;;;1.17;;
56670;SDS011;42545;50.054;8.306;2022-09-21T01:31:02;2.47;;;1.58;;
56670;SDS011;42545;50.054;8.306;2022-09-21T01:33:33;2.45;;;1.58;;
56670;SDS011;42545;50.054;8.306;2022-09-21T01:36:07;1.90;;;1.67;;
56670;SDS011;42545;50.054;8.306;2022-09-21T01:38:39;1.63;;;1.33;;
56670;SDS011;42545;50.054;8.306;2022-09-21T01:41:11;1.45;;;1.33;;
56670;SDS011;42545;50.054;8.306;2022-09-21T01:43:41;2.10;;;1.88;;
56670;SDS011;42545;50.054;8.306;2022-09-21T01:46:14;3.10;;;1.90;;
56670;SDS011;42545;50.054;8.306;2022-09-21T01:48:45;2.05;;;1.73;;
56670;SDS011;42545;50.054;8.306;2022-09-21T01:51:16;2.72;;;1.70;;
56670;SDS011;42545;50.054;8.306;2022-09-21T01:53:46;1.85;;;1.50;;
56670;SDS011;42545;50.054;8.306;2022-09-21T01:56:18;1.73;;;1.52;;
56670;SDS011;42545;50.054;8.306;2022-09-21T01:58:51;2.08;;;1.60;;
56670;SDS011;42545;50.054;8.306;2022-09-21T02:01:26;1.63;;;1.40;;
56670;SDS011;42545;50.054;8.306;2022-09-21T02:03:58;1.33;;;1.10;;
56670;SDS011;42545;50.054;8.306;2022-09-21T02:06:30;1.20;;;1.10;;
56670;SDS011;42545;50.054;8.306;2022-09-21T02:08:57;1.10;;;1.00;;
56670;SDS011;42545;50.054;8.306;2022-09-21T02:11:24;0.90;;;0.90;;
56670;SDS011;42545;50.054;8.306;2022-09-21T02:13:52;1.50;;;0.98;;
56670;SDS011;42545;50.054;8.306;2022-09-21T02:16:25;1.20;;;1.00;;
56670;SDS011;42545;50.054;8.306;2022-09-21T02:19:08;1.38;;;1.27;;
56670;SDS011;42545;50.054;8.306;2022-09-21T02:21:41;1.20;;;1.10;;
56670;SDS011;42545;50.054;8.306;2022-09-21T02:24:16;1.42;;;1.13;;
56670;SDS011;42545;50.054;8.306;2022-09-21T02:26:52;1.20;;;1.05;;
56670;SDS011;42545;50.054;8.306;2022-09-21T02:29:26;1.20;;;1.00;;
56670;SDS011;42545;50.054;8.306;2022-09-21T02:32:00;1.40;;;1.10;;
56670;SDS011;42545;50.054;8.306;2022-09-21T02:34:33;1.52;;;1.20;;
56670;SDS011;42545;50.054;8.306;2022-09-21T02:37:13;1.35;;;1.25;;
56670;SDS011;42545;50.054;8.306;2022-09-21T02:39:44;1.90;;;1.40;;
56670;SDS011;42545;50.054;8.306;2022-09-21T02:42:18;1.60;;;1.40;;
56670;SDS011;42545;50.054;8.306;2022-09-21T02:44:51;2.08;;;1.77;;
56670;SDS011;42545;50.054;8.306;2022-09-21T02:47:27;1.98;;;1.70;;
56670;SDS011;42545;50.054;8.306;2022-09-21T02:50:00;1.65;;;1.42;;
56670;SDS011;42545;50.054;8.306;2022-09-21T02:52:31;1.98;;;1.70;;
56670;SDS011;42545;50.054;8.306;2022-09-21T02:55:01;2.73;;;1.70;;
56670;SDS011;42545;50.054;8.306;2022-09-21T02:57:29;2.10;;;1.70;;
56670;SDS011;42545;50.054;8.306;2022-09-21T03:00:00;1.98;;;1.40;;
56670;SDS011;42545;50.054;8.306;2022-09-21T03:02:35;2.13;;;1.70;;
56670;SDS011;42545;50.054;8.306;2022-09-21T03:05:04;1.45;;;1.35;;
56670;SDS011;42545;50.054;8.306;2022-09-21T03:07:32;1.25;;;1.15;;
56670;SDS011;42545;50.054;8.306;2022-09-21T03:09:59;1.70;;;1.23;;
56670;SDS011;42545;50.054;8.306;2022-09-21T03:12:27;1.52;;;1.20;;
56670;SDS011;42545;50.054;8.306;2022-09-21T03:14:53;1.60;;;1.48;;
56670;SDS011;42545;50.054;8.306;2022-09-21T03:17:20;2.38;;;1.25;;
56670;SDS011;42545;50.054;8.306;2022-09-21T03:19:49;1.48;;;1.20;;
56670;SDS011;42545;50.054;8.306;2022-09-21T03:22:19;1.75;;;1.30;;
56670;SDS011;42545;50.054;8.306;2022-09-21T03:24:46;1.33;;;1.23;;
56670;SDS011;42545;50.054;8.306;2022-09-21T03:27:13;1.65;;;1.55;;
56670;SDS011;42545;50.054;8.306;2022-09-21T03:29:41;1.42;;;1.33;;
56670;SDS011;42545;50.054;8.306;2022-09-21T03:32:08;1.60;;;1.33;;
56670;SDS011;42545;50.054;8.306;2022-09-21T03:34:35;2.67;;;1.80;;
56670;SDS011;42545;50.054;8.306;2022-09-21T03:37:04;2.22;;;1.52;;
56670;SDS011;42545;50.054;8.306;2022-09-21T03:39:32;2.47;;;1.80;;
56670;SDS011;42545;50.054;8.306;2022-09-21T03:42:00;2.50;;;1.40;;
56670;SDS011;42545;50.054;8.306;2022-09-21T03:44:28;2.20;;;1.80;;
56670;SDS011;42545;50.054;8.306;2022-09-21T03:46:54;2.38;;;2.00;;
56670;SDS011;42545;50.054;8.306;2022-09-21T03:49:22;1.90;;;1.70;;
56670;SDS011;42545;50.054;8.306;2022-09-21T03:51:49;1.50;;;1.40;;
56670;SDS011;42545;50.054;8.306;2022-09-21T03:54:17;1.90;;;1.42;;
56670;SDS011;42545;50.054;8.306;2022-09-21T03:56:44;1.27;;;1.13;;
56670;SDS011;42545;50.054;8.306;2022-09-21T03:59:11;2.67;;;1.60;;
56670;SDS011;42545;50.054;8.306;2022-09-21T04:01:37;1.92;;;1.40;;
56670;SDS011;42545;50.054;8.306;2022-09-21T04:04:04;1.77;;;1.67;;
56670;SDS011;42545;50.054;8.306;2022-09-21T04:06:31;1.83;;;1.30;;
56670;SDS011;42545;50.054;8.306;2022-09-21T04:08:58;2.92;;;1.98;;
56670;SDS011;42545;50.054;8.306;2022-09-21T04:11:28;2.60;;;2.30;;
56670;SDS011;42545;50.054;8.306;2022-09-21T04:13:56;2.97;;;2.22;;
56670;SDS011;42545;50.054;8.306;2022-09-21T04:16:24;2.55;;;1.90;;
56670;SDS011;42545;50.054;8.306;2022-09-21T04:18:52;2.55;;;1.98;;
56670;SDS011;42545;50.054;8.306;2022-09-21T04:21:19;2.65;;;1.98;;
56670;SDS011;42545;50.054;8.306;2022-09-21T04:23:47;1.90;;;1.60;;
56670;SDS011;42545;50.054;8.306;2022-09-21T04:26:17;1.98;;;1.70;;
56670;SDS011;42545;50.054;8.306;2022-09-21T04:28:47;2.30;;;2.10;;
56670;SDS011;42545;50.054;8.306;2022-09-21T04:31:14;2.67;;;1.80;;
56670;SDS011;42545;50.054;8.306;2022-09-21T04:33:41;2.35;;;1.80;;
56670;SDS011;42545;50.054;8.306;2022-09-21T04:36:08;2.70;;;2.25;;
56670;SDS011;42545;50.054;8.306;2022-09-21T04:38:37;2.72;;;2.05;;
56670;SDS011;42545;50.054;8.306;2022-09-21T04:41:04;3.35;;;2.63;;
56670;SDS011;42545;50.054;8.306;2022-09-21T04:43:31;3.38;;;2.80;;
56670;SDS011;42545;50.054;8.306;2022-09-21T04:46:05;3.45;;;2.40;;
56670;SDS011;42545;50.054;8.306;2022-09-21T04:48:32;3.20;;;2.08;;
56670;SDS011;42545;50.054;8.306;2022-09-21T04:50:59;3.33;;;2.40;;
56670;SDS011;42545;50.054;8.306;2022-09-21T04:53:26;4.30;;;3.10;;
56670;SDS011;42545;50.054;8.306;2022-09-21T04:55:53;3.58;;;2.65;;
56670;SDS011;42545;50.054;8.306;2022-09-21T04:58:20;4.50;;;2.90;;
56670;SDS011;42545;50.054;8.306;2022-09-21T05:00:48;3.75;;;2.65;;
56670;SDS011;42545;50.054;8.306;2022-09-21T05:03:17;3.70;;;2.42;;
56670;SDS011;42545;50.054;8.306;2022-09-21T05:05:47;2.50;;;1.92;;
56670;SDS011;42545;50.054;8.306;2022-09-21T05:08:15;4.53;;;2.67;;
56670;SDS011;42545;50.054;8.306;2022-09-21T05:11:02;4.15;;;2.70;;
56670;SDS011;42545;50.054;8.306;2022-09-21T05:13:28;3.35;;;2.20;;
56670;SDS011;42545;50.054;8.306;2022-09-21T05:15:55;3.30;;;2.45;;
56670;SDS011;42545;50.054;8.306;2022-09-21T05:18:31;3.80;;;2.53;;
56670;SDS011;42545;50.054;8.306;2022-09-21T05:20:59;3.55;;;2.30;;
56670;SDS011;42545;50.054;8.306;2022-09-21T05:23:27;2.60;;;2.03;;
56670;SDS011;42545;50.054;8.306;2022-09-21T05:25:56;3.17;;;2.40;;
56670;SDS011;42545;50.054;8.306;2022-09-21T05:28:24;3.03;;;2.38;;
56670;SDS011;42545;50.054;8.306;2022-09-21T05:30:52;2.85;;;2.10;;
56670;SDS011;42545;50.054;8.306;2022-09-21T05:33:25;3.10;;;2.28;;
56670;SDS011;42545;50.054;8.306;2022-09-21T05:35:58;2.88;;;2.13;;
56670;SDS011;42545;50.054;8.306;2022-09-21T05:38:31;3.33;;;2.15;;
56670;SDS011;42545;50.054;8.306;2022-09-21T05:40:59;3.13;;;1.98;;
56670;SDS011;42545;50.054;8.306;2022-09-21T05:43:29;2.92;;;1.95;;
56670;SDS011;42545;50.054;8.306;2022-09-21T05:45:57;2.60;;;1.98;;
56670;SDS011;42545;50.054;8.306;2022-09-21T05:48:34;3.17;;;2.20;;
56670;SDS011;42545;50.054;8.306;2022-09-21T05:51:08;2.70;;;1.90;;
56670;SDS011;42545;50.054;8.306;2022-09-21T05:53:49;3.38;;;2.42;;
56670;SDS011;42545;50.054;8.306;2022-09-21T05:56:30;2.95;;;2.60;;
56670;SDS011;42545;50.054;8.306;2022-09-21T05:59:24;3.53;;;2.55;;
56670;SDS011;42545;50.054;8.306;2022-09-21T06:02:12;3.40;;;2.60;;
56670;SDS011;42545;50.054;8.306;2022-09-21T06:04:49;2.88;;;2.22;;
56670;SDS011;42545;50.054;8.306;2022-09-21T06:07:19;2.45;;;1.88;;
56670;SDS011;42545;50.054;8.306;2022-09-21T06:09:46;4.25;;;3.25;;
56670;SDS011;42545;50.054;8.306;2022-09-21T06:12:13;2.75;;;2.13;;
56670;SDS011;42545;50.054;8.306;2022-09-21T06:14:39;4.60;;;3.10;;
56670;SDS011;42545;50.054;8.306;2022-09-21T06:17:07;4.95;;;3.78;;
56670;SDS011;42545;50.054;8.306;2022-09-21T06:19:33;4.00;;;2.85;;
56670;SDS011;42545;50.054;8.306;2022-09-21T06:22:03;3.80;;;2.75;;
56670;SDS011;42545;50.054;8.306;2022-09-21T06:24:30;3.45;;;2.47;;
56670;SDS011;42545;50.054;8.306;2022-09-21T06:26:57;3.80;;;2.75;;
56670;SDS011;42545;50.054;8.306;2022-09-21T06:29:24;4.32;;;2.58;;
56670;SDS011;42545;50.054;8.306;2022-09-21T06:31:51;4.13;;;2.95;;
56670;SDS011;42545;50.054;8.306;2022-09-21T06:34:18;4.03;;;2.92;;
56670;SDS011;42545;50.054;8.306;2022-09-21T06:36:45;4.40;;;2.67;;
56670;SDS011;42545;50.054;8.306;2022-09-21T06:39:13;3.83;;;2.42;;
56670;SDS011;42545;50.054;8.306;2022-09-21T06:41:40;3.83;;;2.88;;
56670;SDS011;42545;50.054;8.306;2022-09-21T06:44:07;5.72;;;3.05;;
56670;SDS011;42545;50.054;8.306;2022-09-21T06:46:33;5.45;;;2.75;;
56670;SDS011;42545;50.054;8.306;2022-09-21T06:49:00;3.42;;;2.50;;
56670;SDS011;42545;50.054;8.306;2022-09-21T06:51:27;2.80;;;2.30;;
56670;SDS011;42545;50.054;8.306;2022-09-21T06:53:54;5.47;;;2.78;;
56670;SDS011;42545;50.054;8.306;2022-09-21T06:56:24;3.60;;;2.70;;
56670;SDS011;42545;50.054;8.306;2022-09-21T06:58:51;2.78;;;2.35;;
56670;SDS011;42545;50.054;8.306;2022-09-21T07:01:18;5.93;;;3.03;;
56670;SDS011;42545;50.054;8.306;2022-09-21T07:03:47;3.08;;;2.05;;
56670;SDS011;42545;50.054;8.306;2022-09-21T07:06:15;3.92;;;3.08;;
56670;SDS011;42545;50.054;8.306;2022-09-21T07:08:42;4.25;;;3.00;;
56670;SDS011;42545;50.054;8.306;2022-09-21T07:11:09;4.05;;;2.83;;
56670;SDS011;42545;50.054;8.306;2022-09-21T07:13:39;17.20;;;8.32;;
56670;SDS011;42545;50.054;8.306;2022-09-21T07:16:06;8.57;;;5.68;;
56670;SDS011;42545;50.054;8.306;2022-09-21T07:18:34;6.88;;;4.45;;
56670;SDS011;42545;50.054;8.306;2022-09-21T07:21:02;11.02;;;5.95;;
56670;SDS011;42545;50.054;8.306;2022-09-21T07:23:29;13.77;;;8.32;;
56670;SDS011;42545;50.054;8.306;2022-09-21T07:25:59;9.20;;;5.20;;
56670;SDS011;42545;50.054;8.306;2022-09-21T07:28:28;6.90;;;4.45;;
56670;SDS011;42545;50.054;8.306;2022-09-21T07:30:57;6.80;;;4.38;;
56670;SDS011;42545;50.054;8.306;2022-09-21T07:33:24;6.85;;;4.95;;
56670;SDS011;42545;50.054;8.306;2022-09-21T07:35:51;7.78;;;5.57;;
56670;SDS011;42545;50.054;8.306;2022-09-21T07:38:20;8.05;;;5.57;;
56670;SDS011;42545;50.054;8.306;2022-09-21T07:40:48;11.43;;;6.78;;
56670;SDS011;42545;50.054;8.306;2022-09-21T07:43:15;16.73;;;8.18;;
56670;SDS011;42545;50.054;8.306;2022-09-21T07:45:42;10.35;;;7.78;;
56670;SDS011;42545;50.054;8.306;2022-09-21T07:48:10;13.15;;;7.95;;
56670;SDS011;42545;50.054;8.306;2022-09-21T07:50:37;14.07;;;8.00;;
56670;SDS011;42545;50.054;8.306;2022-09-21T07:53:03;19.42;;;11.20;;
56670;SDS011;42545;50.054;8.306;2022-09-21T07:55:30;15.85;;;9.77;;
56670;SDS011;42545;50.054;8.306;2022-09-21T07:57:56;21.88;;;11.75;;
56670;SDS011;42545;50.054;8.306;2022-09-21T08:00:40;24.30;;;12.88;;
56670;SDS011;42545;50.054;8.306;2022-09-21T08:03:07;19.98;;;10.38;;
56670;SDS011;42545;50.054;8.306;2022-09-21T08:05:36;20.08;;;11.55;;
56670;SDS011;42545;50.054;8.306;2022-09-21T08:08:03;19.05;;;10.45;;
56670;SDS011;42545;50.054;8.306;2022-09-21T08:10:30;15.18;;;9.82;;
56670;SDS011;42545;50.054;8.306;2022-09-21T08:12:59;19.95;;;11.50;;
56670;SDS011;42545;50.054;8.306;2022-09-21T08:15:26;13.13;;;7.88;;
56670;SDS011;42545;50.054;8.306;2022-09-21T08:17:54;11.52;;;7.55;;
56670;SDS011;42545;50.054;8.306;2022-09-21T08:20:20;10.02;;;7.35;;
56670;SDS011;42545;50.054;8.306;2022-09-21T08:22:49;16.98;;;11.20;;
56670;SDS011;42545;50.054;8.306;2022-09-21T08:25:17;20.58;;;11.00;;
56670;SDS011;42545;50.054;8.306;2022-09-21T08:27:44;16.88;;;9.27;;
56670;SDS011;42545;50.054;8.306;2022-09-21T08:30:11;14.85;;;8.85;;
56670;SDS011;42545;50.054;8.306;2022-09-21T08:32:38;17.45;;;9.10;;
56670;SDS011;42545;50.054;8.306;2022-09-21T08:35:06;9.15;;;7.15;;
56670;SDS011;42545;50.054;8.306;2022-09-21T08:37:33;10.00;;;6.28;;
56670;SDS011;42545;50.054;8.306;2022-09-21T08:40:04;14.00;;;8.30;;
56670;SDS011;42545;50.054;8.306;2022-09-21T08:42:37;13.75;;;7.60;;
56670;SDS011;42545;50.054;8.306;2022-09-21T08:45:10;17.42;;;8.32;;
56670;SDS011;42545;50.054;8.306;2022-09-21T08:47:41;8.40;;;4.90;;
56670;SDS011;42545;50.054;8.306;2022-09-21T08:50:18;5.53;;;4.32;;
56670;SDS011;42545;50.054;8.306;2022-09-21T08:52:56;7.35;;;3.90;;
56670;SDS011;42545;50.054;8.306;2022-09-21T08:55:30;4.75;;;3.30;;
56670;SDS011;42545;50.054;8.306;2022-09-21T08:57:57;4.15;;;2.53;;
56670;SDS011;42545;50.054;8.306;2022-09-21T09:00:25;9.00;;;2.72;;
56670;SDS011;42545;50.054;8.306;2022-09-21T09:03:03;5.82;;;2.95;;
56670;SDS011;42545;50.054;8.306;2022-09-21T09:05:43;4.00;;;2.22;;
56670;SDS011;42545;50.054;8.306;2022-09-21T09:08:18;6.43;;;3.35;;
56670;SDS011;42545;50.054;8.306;2022-09-21T09:11:01;4.05;;;2.58;;
56670;SDS011;42545;50.054;8.306;2022-09-21T09:13:45;11.32;;;3.80;;
56670;SDS011;42545;50.054;8.306;2022-09-21T09:16:31;7.25;;;3.78;;
56670;SDS011;42545;50.054;8.306;2022-09-21T09:19:08;8.85;;;3.03;;
56670;SDS011;42545;50.054;8.306;2022-09-21T09:21:43;6.82;;;2.60;;
56670;SDS011;42545;50.054;8.306;2022-09-21T09:24:11;9.10;;;3.20;;
56670;SDS011;42545;50.054;8.306;2022-09-21T09:26:46;6.45;;;3.00;;
56670;SDS011;42545;50.054;8.306;2022-09-21T09:29:20;12.27;;;2.88;;
56670;SDS011;42545;50.054;8.306;2022-09-21T09:31:54;6.38;;;2.55;;
56670;SDS011;42545;50.054;8.306;2022-09-21T09:34:24;7.72;;;3.10;;
56670;SDS011;42545;50.054;8.306;2022-09-21T09:36:57;5.20;;;2.42;;
56670;SDS011;42545;50.054;8.306;2022-09-21T09:39:27;3.72;;;2.20;;
56670;SDS011;42545;50.054;8.306;2022-09-21T09:42:09;5.82;;;2.30;;
56670;SDS011;42545;50.054;8.306;2022-09-21T09:44:50;5.20;;;1.80;;
56670;SDS011;42545;50.054;8.306;2022-09-21T09:47:31;4.85;;;2.28;;
56670;SDS011;42545;50.054;8.306;2022-09-21T09:50:09;7.50;;;2.10;;
56670;SDS011;42545;50.054;8.306;2022-09-21T09:52:38;4.10;;;1.90;;
56670;SDS011;42545;50.054;8.306;2022-09-21T09:55:10;3.22;;;2.08;;
56670;SDS011;42545;50.054;8.306;2022-09-21T09:57:46;5.20;;;1.98;;
56670;SDS011;42545;50.054;8.306;2022-09-21T10:00:14;5.10;;;2.33;;
56670;SDS011;42545;50.054;8.306;2022-09-21T10:02:46;5.15;;;2.22;;
56670;SDS011;42545;50.054;8.306;2022-09-21T10:05:19;3.40;;;2.00;;
56670;SDS011;42545;50.054;8.306;2022-09-21T10:07:48;4.70;;;2.10;;
56670;SDS011;42545;50.054;8.306;2022-09-21T10:10:25;5.75;;;2.30;;
56670;SDS011;42545;50.054;8.306;2022-09-21T10:13:03;5.28;;;1.80;;
56670;SDS011;42545;50.054;8.306;2022-09-21T10:15:37;7.28;;;2.40;;
56670;SDS011;42545;50.054;8.306;2022-09-21T10:18:11;5.20;;;2.13;;
56670;SDS011;42545;50.054;8.306;2022-09-21T10:20:51;5.28;;;1.70;;
56670;SDS011;42545;50.054;8.306;2022-09-21T10:23:20;8.60;;;2.08;;
56670;SDS011;42545;50.054;8.306;2022-09-21T10:25:52;3.03;;;1.75;;
56670;SDS011;42545;50.054;8.306;2022-09-21T10:28:21;3.03;;;1.60;;
56670;SDS011;42545;50.054;8.306;2022-09-21T10:30:49;3.00;;;1.58;;
56670;SDS011;42545;50.054;8.306;2022-09-21T10:33:32;5.18;;;1.80;;
56670;SDS011;42545;50.054;8.306;2022-09-21T10:36:28;5.25;;;1.60;;
56670;SDS011;42545;50.054;8.306;2022-09-21T10:39:09;4.97;;;1.95;;
56670;SDS011;42545;50.054;8.306;2022-09-21T10:41:37;3.60;;;1.50;;
56670;SDS011;42545;50.054;8.306;2022-09-21T10:44:10;3.40;;;2.00;;
56670;SDS011;42545;50.054;8.306;2022-09-21T10:46:41;5.82;;;2.33;;
56670;SDS011;42545;50.054;8.306;2022-09-21T10:49:14;5.18;;;1.70;;
56670;SDS011;42545;50.054;8.306;2022-09-21T10:51:45;3.47;;;1.65;;
56670;SDS011;42545;50.054;8.306;2022-09-21T10:54:16;7.57;;;2.17;;
56670;SDS011;42545;50.054;8.306;2022-09-21T10:56:55;3.63;;;1.42;;
56670;SDS011;42545;50.054;8.306;2022-09-21T10:59:30;11.15;;;5.13;;
56670;SDS011;42545;50.054;8.306;2022-09-21T11:01:58;3.75;;;2.03;;
56670;SDS011;42545;50.054;8.306;2022-09-21T11:04:31;5.28;;;1.73;;
56670;SDS011;42545;50.054;8.306;2022-09-21T11:07:08;15.27;;;4.05;;
56670;SDS011;42545;50.054;8.306;2022-09-21T11:09:40;12.88;;;6.60;;
56670;SDS011;42545;50.054;8.306;2022-09-21T11:12:19;62.45;;;39.65;;
56670;SDS011;42545;50.054;8.306;2022-09-21T11:14:58;39.55;;;25.23;;
56670;SDS011;42545;50.054;8.306;2022-09-21T11:17:32;9.32;;;5.43;;
56670;SDS011;42545;50.054;8.306;2022-09-21T11:20:04;11.00;;;6.25;;
56670;SDS011;42545;50.054;8.306;2022-09-21T11:22:41;4.57;;;2.30;;
56670;SDS011;42545;50.054;8.306;2022-09-21T11:25:18;2.30;;;1.70;;
56670;SDS011;42545;50.054;8.306;2022-09-21T11:27:53;4.45;;;1.83;;
56670;SDS011;42545;50.054;8.306;2022-09-21T11:30:29;5.40;;;2.20;;
56670;SDS011;42545;50.054;8.306;2022-09-21T11:33:09;4.07;;;1.58;;
56670;SDS011;42545;50.054;8.306;2022-09-21T11:35:47;3.63;;;1.40;;
56670;SDS011;42545;50.054;8.306;2022-09-21T11:38:27;3.47;;;1.52;;
56670;SDS011;42545;50.054;8.306;2022-09-21T11:41:12;3.92;;;1.50;;
56670;SDS011;42545;50.054;8.306;2022-09-21T11:43:54;2.20;;;1.27;;
56670;SDS011;42545;50.054;8.306;2022-09-21T11:46:37;6.75;;;1.42;;
56670;SDS011;42545;50.054;8.306;2022-09-21T11:49:16;2.45;;;1.23;;
56670;SDS011;42545;50.054;8.306;2022-09-21T11:52:02;2.13;;;1.10;;
56670;SDS011;42545;50.054;8.306;2022-09-21T11:54:49;2.97;;;1.10;;
56670;SDS011;42545;50.054;8.306;2022-09-21T11:57:25;7.65;;;1.45;;
56670;SDS011;42545;50.054;8.306;2022-09-21T12:00:02;10.57;;;1.42;;
56670;SDS011;42545;50.054;8.306;2022-09-21T12:03:05;3.97;;;1.63;;
56670;SDS011;42545;50.054;8.306;2022-09-21T12:05:49;8.93;;;2.72;;
56670;SDS011;42545;50.054;8.306;2022-09-21T12:08:37;5.03;;;1.70;;
56670;SDS011;42545;50.054;8.306;2022-09-21T12:11:16;3.05;;;1.30;;
56670;SDS011;42545;50.054;8.306;2022-09-21T12:13:55;5.18;;;1.40;;
56670;SDS011;42545;50.054;8.306;2022-09-21T12:16:31;4.80;;;1.15;;
56670;SDS011;42545;50.054;8.306;2022-09-21T12:19:08;2.75;;;1.40;;
56670;SDS011;42545;50.054;8.306;2022-09-21T12:21:46;7.32;;;1.40;;
56670;SDS011;42545;50.054;8.306;2022-09-21T12:24:16;2.90;;;1.30;;
56670;SDS011;42545;50.054;8.306;2022-09-21T12:26:48;2.28;;;1.30;;
56670;SDS011;42545;50.054;8.306;2022-09-21T12:29:21;2.92;;;1.70;;
56670;SDS011;42545;50.054;8.306;2022-09-21T12:31:55;3.75;;;2.00;;
56670;SDS011;42545;50.054;8.306;2022-09-21T12:34:29;2.78;;;1.23;;
56670;SDS011;42545;50.054;8.306;2022-09-21T12:37:02;3.75;;;1.10;;
56670;SDS011;42545;50.054;8.306;2022-09-21T12:39:36;2.70;;;1.00;;
56670;SDS011;42545;50.054;8.306;2022-09-21T12:42:20;3.90;;;1.33;;
56670;SDS011;42545;50.054;8.306;2022-09-21T12:44:52;2.33;;;1.30;;
56670;SDS011;42545;50.054;8.306;2022-09-21T12:47:24;4.47;;;1.05;;
56670;SDS011;42545;50.054;8.306;2022-09-21T12:50:00;2.42;;;1.00;;
56670;SDS011;42545;50.054;8.306;2022-09-21T12:52:31;6.53;;;1.30;;
56670;SDS011;42545;50.054;8.306;2022-09-21T12:55:01;8.00;;;1.13;;
56670;SDS011;42545;50.054;8.306;2022-09-21T12:57:40;4.38;;;0.80;;
56670;SDS011;42545;50.054;8.306;2022-09-21T13:00:17;2.00;;;1.15;;
56670;SDS011;42545;50.054;8.306;2022-09-21T13:02:48;2.28;;;1.00;;
56670;SDS011;42545;50.054;8.306;2022-09-21T13:05:30;2.00;;;1.23;;
56670;SDS011;42545;50.054;8.306;2022-09-21T13:08:06;2.22;;;0.80;;
56670;SDS011;42545;50.054;8.306;2022-09-21T13:10:40;2.15;;;0.75;;
56670;SDS011;42545;50.054;8.306;2022-09-21T13:13:16;2.83;;;1.30;;
56670;SDS011;42545;50.054;8.306;2022-09-21T13:15:48;7.72;;;1.20;;
56670;SDS011;42545;50.054;8.306;2022-09-21T13:18:18;1.90;;;1.13;;
56670;SDS011;42545;50.054;8.306;2022-09-21T13:20:50;2.67;;;0.82;;
56670;SDS011;42545;50.054;8.306;2022-09-21T13:23:21;2.75;;;1.00;;
56670;SDS011;42545;50.054;8.306;2022-09-21T13:25:57;1.35;;;0.75;;
56670;SDS011;42545;50.054;8.306;2022-09-21T13:28:40;1.48;;;0.70;;
56670;SDS011;42545;50.054;8.306;2022-09-21T13:31:37;3.70;;;0.85;;
56670;SDS011;42545;50.054;8.306;2022-09-21T13:34:22;1.75;;;0.98;;
56670;SDS011;42545;50.054;8.306;2022-09-21T13:37:20;2.25;;;1.17;;
56670;SDS011;42545;50.054;8.306;2022-09-21T13:39:56;2.33;;;0.77;;
56670;SDS011;42545;50.054;8.306;2022-09-21T13:43:13;0.82;;;0.70;;
56670;SDS011;42545;50.054;8.306;2022-09-21T13:45:48;2.88;;;0.80;;
56670;SDS011;42545;50.054;8.306;2022-09-21T13:48:21;1.90;;;0.80;;
56670;SDS011;42545;50.054;8.306;2022-09-21T13:50:59;2.28;;;1.00;;
56670;SDS011;42545;50.054;8.306;2022-09-21T13:53:36;2.92;;;0.88;;
56670;SDS011;42545;50.054;8.306;2022-09-21T13:56:07;2.38;;;1.00;;
56670;SDS011;42545;50.054;8.306;2022-09-21T13:58:44;3.75;;;1.00;;
56670;SDS011;42545;50.054;8.306;2022-09-21T14:01:16;1.90;;;0.82;;
56670;SDS011;42545;50.054;8.306;2022-09-21T14:03:46;2.63;;;0.70;;
56670;SDS011;42545;50.054;8.306;2022-09-21T14:06:18;1.85;;;1.10;;
56670;SDS011;42545;50.054;8.306;2022-09-21T14:08:51;4.43;;;2.25;;
56670;SDS011;42545;50.054;8.306;2022-09-21T14:11:27;4.10;;;1.35;;
56670;SDS011;42545;50.054;8.306;2022-09-21T14:14:05;2.40;;;0.88;;
56670;SDS011;42545;50.054;8.306;2022-09-21T14:16:52;1.50;;;1.00;;
56670;SDS011;42545;50.054;8.306;2022-09-21T14:22:32;0.77;;;0.70;;
56670;SDS011;42545;50.054;8.306;2022-09-21T14:25:21;2.53;;;0.98;;
56670;SDS011;42545;50.054;8.306;2022-09-21T14:27:51;2.67;;;0.80;;
56670;SDS011;42545;50.054;8.306;2022-09-21T14:30:20;3.30;;;0.90;;
56670;SDS011;42545;50.054;8.306;2022-09-21T14:32:50;1.92;;;1.00;;
56670;SDS011;42545;50.054;8.306;2022-09-21T14:35:23;2.83;;;1.05;;
56670;SDS011;42545;50.054;8.306;2022-09-21T14:37:54;1.42;;;0.95;;
56670;SDS011;42545;50.054;8.306;2022-09-21T14:40:25;3.13;;;0.90;;
56670;SDS011;42545;50.054;8.306;2022-09-21T14:42:58;1.35;;;0.70;;
56670;SDS011;42545;50.054;8.306;2022-09-21T14:45:40;1.63;;;1.20;;
56670;SDS011;42545;50.054;8.306;2022-09-21T14:48:20;2.35;;;0.90;;
56670;SDS011;42545;50.054;8.306;2022-09-21T14:50:55;1.85;;;0.80;;
56670;SDS011;42545;50.054;8.306;2022-09-21T14:53:45;5.65;;;1.20;;
56670;SDS011;42545;50.054;8.306;2022-09-21T14:56:32;1.30;;;0.68;;
56670;SDS011;42545;50.054;8.306;2022-09-21T14:59:23;1.30;;;0.70;;
56670;SDS011;42545;50.054;8.306;2022-09-21T15:02:00;2.05;;;0.77;;
56670;SDS011;42545;50.054;8.306;2022-09-21T15:04:45;0.93;;;0.70;;
56670;SDS011;42545;50.054;8.306;2022-09-21T15:07:24;0.88;;;0.52;;
56670;SDS011;42545;50.054;8.306;2022-09-21T15:10:21;0.73;;;0.55;;
56670;SDS011;42545;50.054;8.306;2022-09-21T15:13:30;3.20;;;0.95;;
56670;SDS011;42545;50.054;8.306;2022-09-21T15:16:16;6.50;;;0.98;;
56670;SDS011;42545;50.054;8.306;2022-09-21T15:18:49;1.70;;;0.68;;
56670;SDS011;42545;50.054;8.306;2022-09-21T15:21:20;2.08;;;0.70;;